Ride Results

Terrific Tenterfield Sunday (26-10-2008)
Ride distance: 80.0 km

Outcomes - Terrific Tenterfield Sunday (26-10-2008)
Division No. of Entries Retired / DNE Completed Withdrawn Ineligible V/O Percentage Completed
HW 12 - 9 - - 3 75.00%
MW 28 - 23 3 - 2 82.14%
LW 17 - 16 - - 1 94.12%
JN 7 - 6 - - 1 85.71%
Totals 64 - 54 3 - 7 84.38%
Results - Terrific Tenterfield Sunday (26-10-2008)
No. Rider Horse Place Time Leg Speeds Total
Km/Hr
H/R bpm
Heavyweight
30 John Dugan Performance Park Lady Kharisma 1 6:16:38 12.4, 13.0 12.74 28, 47, 48 (Avg:47)
8 Allyson Taylor Everon Park Shebell 2 (BC) 6:39:50 12.6, 11.4 12.01 42, 46, 49 (Avg:47)
27 Dick Collyer Crystamaria 3 6:42:10 13.2, 10.8 11.94 38, 49, 51 (Avg:50)
46 Rod Strahan Shardell Siverado 4 7:13:00 12.2, 10.1 11.09 41, 41, 43 (Avg:42)
33 Selwyn Nix Aloha Inari 5 8:20:00 10.1, 9.1 9.60 41, 43, 50 (Avg:46)
64 Alan Post Woodbourne Mr Brown 6 8:36:11 8.6, 10.0 9.30 53, 51, 59 (Avg:55)
42 Caro de Boer Hirstglen Zanadu 7 8:37:00 7.6, 11.8 9.28 36, 43, 52 (Avg:47)
58 Allan Caslick A'Landell Detonate 8 8:45:00 8.7, 9.5 9.14 41, 47, 55 (Avg:51)
19 Kevin Moss Palmgold Bravado 9 8:50:00 9.3, 8.8 9.06 38, 54, 56 (Avg:55)
60 Matthew Gadsby Anglesea Trafford Metabolics moderate L2 0:00:00 14.0, 8.1 - 40, 41, 48 (Avg:44)
3 Sue Gurtner Roseglen Cedarton Sym Heart Rate L2 0:00:00 11.7, 9.9 - 43, 52, 69 (Avg:60)
21 Vern Berry Cheveaux Prelude Heart Rate L1 0:00:00 7.4 - 40, 56 (Avg:56)
Middleweight
41 Vanessa Tiffen Hirstglen Texas Rose 1 5:44:00 14.0, 13.8 13.95 36, 49, 55 (Avg:52)
31 Judy Battams El Rebel Stimulator 2 (BC) 6:03:00 15.6, 11.4 13.22 40, 53, 35 (Avg:44)
13 Peter Kelly Wollumbin Faiz 2 6:03:00 14.0, 12.4 13.22 33, 42, 41 (Avg:41)
40 Donna Brooker Hirstglen Fargo 4 6:16:36 12.1, 13.3 12.75 40, 44, 50 (Avg:47)
47 Karen Weeden Claralee Silverdo 5 6:36:00 11.0, 13.4 12.12 41, 41, 49 (Avg:45)
4 Ken Moir Sundust Joker 6 6:42:12 15.3, 9.7 11.93 31, 50, 56 (Avg:53)
57 Bruce Seaward Monterra Ibn Silver Magic 7 6:43:00 12.4, 11.3 11.91 36, 46, 54 (Avg:50)
44 Tanya Trevarthen Sarandeep 7 6:43:00 12.2, 11.5 11.91 31, 37, 57 (Avg:47)
10 Rachael Keys Elfar Viper Fire 9 6:53:00 12.2, 11.0 11.62 39, 40, 49 (Avg:44)
51 Cora Becker Bones the Wizard 10 7:04:00 12.2, 10.5 11.32 37, 40, 44 (Avg:42)
29 Andrew Blakely Aloha Kyrie 11 7:28:24 11.2, 10.1 10.70 41, 48, 52 (Avg:50)
50 Angela Head Bourhani Albaraq 12 7:31:32 11.5, 9.8 10.63 40, 39, 55 (Avg:47)
39 Cindy Day Stanpark Simone 13 7:38:03 10.2, 10.7 10.48 33, 41, 48 (Avg:44)
23 Lynn Coles Pinedene Robbie 14 7:50:00 10.6, 9.8 10.21 36, 40, 41 (Avg:40)
5 Nickie Hodgins Torryburn Bounty 15 8:05:00 10.3, 9.5 9.90 37, 45, 52 (Avg:48)
12 Debra McQueen Armani Thunder 16 8:06:00 9.9, 9.8 9.88 41, 50, 54 (Avg:52)
14 Helena South Kerewong Shelfyre 17 8:16:00 10.2, 9.1 9.68 34, 41, 44 (Avg:42)
62 Robyn McIntosh-Shoesmith Turingal Park Nikolayev 18 8:17:00 8.8, 10.5 9.66 34, 43, 52 (Avg:47)
34 Derryn Nix Shaydeetree Baci 19 8:20:00 10.1, 9.1 9.60 40, 47, 53 (Avg:50)
53 Tarnia Kittel Aloha Ishmael 20 8:30:10 9.2, 9.5 9.41 44, 47, 50 (Avg:48)
32 Stephen Gray Shartier el shareef 21 8:32:00 9.6, 9.1 9.38 43, 53, 47 (Avg:50)
65 Judith Burton Kurrajong Sting 22 8:36:10 8.6, 10.0 9.30 44, 44, 50 (Avg:47)
59 Ruth Van der Wegen Aratahnes Impressive 23 8:45:00 8.7, 9.5 9.14 44, 47, 47 (Avg:47)
49 Gerard Bou Bourhani Olympus Lame L2 0:00:00 12.4, 11.4 - 36, 48, 53 (Avg:50)
43 Dee Berry Hirstglen Zambezi Withdrawn L1 0:00:00 - - 38, 44 (Avg:44)
20 Yvonne Knight Espirit Gunner Withdrawn L1 0:00:00 - - 40, 55 (Avg:55)
24 Justin Otto Damanda Kaaluha Withdrawn L1 0:00:00 - - 40, 47 (Avg:47)
36 Tony Standfield Stanpark Rupert Lame L1 0:00:00 10.3 - 39, 48 (Avg:48)
Lightweight
17 Angela Hawks Crysari 1 (BC) 5:56:00 13.0, 13.9 13.48 37, 41, 50 (Avg:45)
26 Sonya Ryan Lindall Farvio 2 6:39:00 12.2, 11.8 12.03 34, 33, 51 (Avg:42)
35 Susan Kelman Jayhal Moonlight 3 6:42:11 12.4, 11.4 11.93 36, 43, 47 (Avg:45)
1 Sandra Bishop Willandra Wind Lancer 4 6:43:00 11.7, 12.0 11.91 39, 45, 47 (Avg:46)
55 Allix Jones Shellal Cattle King Flyte 5 7:27:00 11.2, 10.2 10.74 36, 47, 53 (Avg:50)
56 Wendy Jones Shawli Impression 6 7:28:26 11.2, 10.1 10.70 44, 49, 58 (Avg:53)
52 Renae Kuhn Splitters Creek Bundy 7 7:31:30 11.5, 9.8 10.63 35, 39, 59 (Avg:49)
37 Aime Newton Stanpark Axeman 8 7:38:01 10.2, 10.7 10.48 44, 45, 47 (Avg:46)
16 Adrian Brickley Edenfels Magnum 9 7:43:00 10.2, 10.5 10.37 41, 43, 50 (Avg:46)
7 Kirsty Owen Heartfire Hafiz 10 7:44:00 11.7, 9.2 10.34 31, 42, 52 (Avg:47)
28 Jan Wade Hajra Leonie 11 7:50:01 10.6, 9.8 10.21 32, 39, 55 (Avg:47)
9 Louise Jackson Sabajet 12 8:05:00 10.3, 9.5 9.90 35, 43, 45 (Avg:44)
45 Xanthe Webb Azzrah 13 8:06:00 9.9, 9.8 9.88 35, 42, 49 (Avg:45)
63 Leah Felton Alamo Minelli 14 8:17:00 9.9, 9.3 9.66 36, 45, 53 (Avg:49)
54 Amanda Powell Aloha Rain Dance 15 8:30:10 9.2, 9.5 9.41 35, 38, 39 (Avg:38)
18 Jill Colwell Aloha Desert Opal 16 8:50:00 9.3, 8.8 9.06 37, 39, 42 (Avg:40)
6 Natalie McIntyre Barkala Envoy Lame L2 0:00:00 10.3, 8.3 - 35, 41, 59 (Avg:50)
Junior
11 Hannah Houlden Googabilla Lodge Starlight 1 (BC) 4:54:52 14.5, 18.4 16.28 39, 48, 60 (Avg:54)
25 David Anderson Jnr Tobinlee Ishmale 2 4:54:54 15.6, 16.9 16.28 37, 41, 50 (Avg:45)
61 Racheal Townsend Chingford Black Magic 3 7:04:00 12.2, 10.5 11.32 33, 39, 45 (Avg:42)
48 Alana Sanchez Stotfold Solitaire 4 7:36:12 11.0, 10.0 10.52 37, 44, 57 (Avg:50)
38 Billie Standfield Stanpark Meg 5 7:38:02 10.2, 10.7 10.48 38, 44, 45 (Avg:44)
22 Tia Cunnington Wattles Marcelle 6 8:16:00 10.2, 9.1 9.68 40, 52, 56 (Avg:54)
2 Candice Gurtner Shallom Vale Natassia Heart Rate L1 0:00:00 10.2 - 30, 58 (Avg:58)